createdAt,value
2022-11-16T00:04:07.061Z,19.30
2022-11-16T00:09:22.608Z,18.25
2022-11-16T00:14:25.338Z,19.52
2022-11-16T00:19:26.797Z,18.10
2022-11-16T00:24:28.180Z,17.30
2022-11-16T00:29:29.655Z,18.10
2022-11-16T00:34:31.048Z,19.25
2022-11-16T00:39:32.499Z,18.10
2022-11-16T00:44:33.880Z,17.35
2022-11-16T00:49:35.246Z,18.60
2022-11-16T00:54:36.668Z,18.52
2022-11-16T00:59:38.060Z,20.15
2022-11-16T01:04:39.460Z,22.83
2022-11-16T01:09:40.858Z,18.02
2022-11-16T01:14:43.649Z,20.95
2022-11-16T01:19:45.081Z,19.48
2022-11-16T01:24:46.921Z,20.08
2022-11-16T01:29:48.433Z,21.48
2022-11-16T01:34:50.742Z,20.27
2022-11-16T01:39:52.163Z,20.02
2022-11-16T01:45:13.786Z,21.80
2022-11-16T01:50:16.390Z,20.17
2022-11-16T01:55:17.838Z,20.02
2022-11-16T02:00:19.394Z,23.00
2022-11-16T02:10:50.117Z,19.77
2022-11-16T02:16:11.745Z,20.40
2022-11-16T02:21:16.137Z,22.65
2022-11-16T02:26:17.506Z,21.00
2022-11-16T02:36:41.603Z,21.30
2022-11-16T02:41:44.146Z,20.50
2022-11-16T02:46:47.302Z,19.58
2022-11-16T02:51:49.059Z,20.02
2022-11-16T02:57:02.360Z,20.25
2022-11-16T03:02:22.584Z,21.65
2022-11-16T03:07:25.922Z,21.48
2022-11-16T03:12:31.087Z,22.52
2022-11-16T03:17:41.562Z,23.95
2022-11-16T03:22:45.063Z,21.02
2022-11-16T03:27:46.436Z,20.70
2022-11-16T03:32:50.856Z,21.02
2022-11-16T03:37:54.880Z,18.58
2022-11-16T03:42:56.561Z,15.95
2022-11-16T03:47:58.047Z,16.05
2022-11-16T03:52:59.559Z,15.75
2022-11-16T03:58:01.052Z,15.02
2022-11-16T04:03:02.597Z,14.73
2022-11-16T04:08:23.073Z,11.77
2022-11-16T04:13:47.584Z,11.02
2022-11-16T04:19:07.539Z,10.20
2022-11-16T04:24:13.847Z,10.45
2022-11-16T04:29:15.353Z,10.57
2022-11-16T04:34:35.127Z,10.95
2022-11-16T04:39:36.531Z,10.75
2022-11-16T04:44:56.646Z,10.98
2022-11-16T04:54:59.383Z,12.10
2022-11-16T05:00:00.799Z,12.05
2022-11-16T05:05:02.224Z,14.52
2022-11-16T05:10:05.402Z,18.55
2022-11-16T05:15:07.455Z,18.85
2022-11-16T05:20:28.356Z,19.80
2022-11-16T05:25:35.293Z,18.80
2022-11-16T05:30:37.977Z,19.02
2022-11-16T05:35:39.350Z,19.45
2022-11-16T05:40:40.767Z,18.00
2022-11-16T05:45:42.742Z,17.58
2022-11-16T05:50:44.150Z,18.15
2022-11-16T05:55:45.723Z,22.30
2022-11-16T06:00:47.484Z,20.33
2022-11-16T06:05:49.023Z,19.95
2022-11-16T06:10:50.526Z,29.63
2022-11-16T06:15:51.894Z,20.70
2022-11-16T06:20:53.346Z,23.40
2022-11-16T06:25:55.362Z,23.20
2022-11-16T06:30:57.039Z,22.08
2022-11-16T06:35:58.422Z,23.92
2022-11-16T06:40:59.896Z,22.60
2022-11-16T06:46:01.402Z,22.88
2022-11-16T06:51:02.847Z,22.02
2022-11-16T06:56:05.180Z,25.08
2022-11-16T07:01:07.483Z,25.58
2022-11-16T07:06:12.377Z,21.45
2022-11-16T07:11:13.805Z,23.67
2022-11-16T07:16:15.481Z,21.88
2022-11-16T07:21:17.405Z,23.80
2022-11-16T07:26:18.837Z,21.42
2022-11-16T07:31:20.758Z,22.08
2022-11-16T07:36:22.141Z,21.38
2022-11-16T07:41:23.838Z,24.30
2022-11-16T07:51:46.955Z,25.33
2022-11-16T07:56:51.393Z,24.38
2022-11-16T08:01:52.983Z,18.05
2022-11-16T08:06:54.438Z,18.42
2022-11-16T08:11:55.875Z,18.65
2022-11-16T08:16:57.278Z,15.50
2022-11-16T08:21:58.733Z,16.67
2022-11-16T08:27:00.265Z,15.88
2022-11-16T08:32:02.003Z,13.55
2022-11-16T08:37:03.421Z,13.77
2022-11-16T08:42:04.874Z,15.32
2022-11-16T08:47:06.315Z,17.10
2022-11-16T08:52:07.739Z,16.45
2022-11-16T08:57:09.310Z,14.90
2022-11-16T09:02:10.799Z,13.57
2022-11-16T09:07:12.258Z,15.18
2022-11-16T09:12:13.768Z,14.80
2022-11-16T09:17:18.895Z,14.52
2022-11-16T09:22:24.625Z,18.13
2022-11-16T09:27:26.180Z,16.55
2022-11-16T09:32:27.767Z,16.25
2022-11-16T09:37:29.392Z,19.42
2022-11-16T09:42:33.729Z,17.17
2022-11-16T09:47:38.891Z,18.02
2022-11-16T09:52:43.182Z,20.70
2022-11-16T09:57:45.162Z,13.60
2022-11-16T10:02:48.585Z,14.38
2022-11-16T10:07:58.073Z,15.05
2022-11-16T10:13:11.120Z,15.25
2022-11-16T10:18:13.157Z,16.67
2022-11-16T10:23:28.858Z,14.93
2022-11-16T10:28:45.401Z,15.00
2022-11-16T10:33:49.331Z,15.05
2022-11-16T10:38:50.838Z,16.70
2022-11-16T10:43:53.217Z,14.95
2022-11-16T10:48:57.502Z,16.58
2022-11-16T10:54:17.588Z,20.40
2022-11-16T11:04:20.507Z,21.05
2022-11-16T11:09:38.582Z,17.85
2022-11-16T11:14:40.045Z,18.67
2022-11-16T11:19:41.458Z,16.90
2022-11-16T11:24:47.189Z,18.10
2022-11-16T11:29:51.384Z,16.80
2022-11-16T11:34:54.249Z,12.88
2022-11-16T11:40:07.707Z,16.73
2022-11-16T11:45:13.165Z,14.38
2022-11-16T11:50:33.259Z,13.85
2022-11-16T12:06:10.037Z,11.05
2022-11-16T12:11:28.267Z,16.08
2022-11-16T12:16:38.365Z,13.77
2022-11-16T12:21:43.252Z,11.30
2022-11-16T12:27:06.486Z,13.27
2022-11-16T12:32:40.447Z,16.45
2022-11-16T12:38:00.847Z,10.35
2022-11-16T12:43:35.292Z,15.65
2022-11-16T12:48:46.225Z,16.38
2022-11-16T12:54:06.534Z,14.55
2022-11-16T12:59:19.899Z,12.75
2022-11-16T13:04:21.280Z,13.27
2022-11-16T13:09:27.727Z,11.20
2022-11-16T13:14:38.927Z,14.60
2022-11-16T13:19:42.046Z,12.85
2022-11-16T13:24:52.533Z,10.95
2022-11-16T13:30:29.613Z,11.00
2022-11-16T13:35:31.066Z,12.77
2022-11-16T13:40:33.467Z,13.88
2022-11-16T13:45:34.969Z,10.80
2022-11-16T13:50:39.816Z,10.40
2022-11-16T13:55:42.836Z,12.10
2022-11-16T14:00:53.871Z,11.80
2022-11-16T14:05:55.409Z,10.13
2022-11-16T14:10:56.800Z,9.95
2022-11-16T14:16:19.309Z,15.10
2022-11-16T14:21:39.655Z,13.90
2022-11-16T14:26:59.669Z,11.25
2022-11-16T14:32:02.159Z,14.98
2022-11-16T14:37:03.572Z,14.07
2022-11-16T14:42:07.221Z,11.63
2022-11-16T14:47:19.120Z,13.50
2022-11-16T14:52:30.727Z,14.45
2022-11-16T14:57:50.997Z,13.43
2022-11-16T15:02:57.608Z,14.60
2022-11-16T15:08:05.603Z,11.25
2022-11-16T15:13:07.124Z,12.65
2022-11-16T15:18:12.958Z,9.15
2022-11-16T15:23:15.173Z,9.15
2022-11-16T15:28:18.213Z,9.45
2022-11-16T15:33:24.367Z,7.20
2022-11-16T15:38:27.348Z,13.23
2022-11-16T15:43:31.263Z,11.95
2022-11-16T15:48:33.891Z,8.82
2022-11-16T15:53:35.844Z,9.90
2022-11-16T15:58:39.291Z,10.75
2022-11-16T16:03:46.734Z,13.27
2022-11-16T16:09:03.123Z,9.48
2022-11-16T16:14:04.692Z,11.10
2022-11-16T16:19:09.904Z,12.45
2022-11-16T16:24:31.786Z,8.90
2022-11-16T16:29:33.197Z,12.57
2022-11-16T16:34:37.900Z,15.30
2022-11-16T16:39:42.448Z,11.85
2022-11-16T16:44:44.822Z,10.90
2022-11-16T16:49:46.710Z,11.02
2022-11-16T16:54:48.208Z,10.50
2022-11-16T16:59:49.702Z,15.52
2022-11-16T17:04:51.329Z,9.80
2022-11-16T17:10:01.494Z,10.80
2022-11-16T17:15:02.956Z,8.18
2022-11-16T17:20:06.218Z,12.38
2022-11-16T17:25:08.515Z,10.30
2022-11-16T17:30:10.331Z,15.50
2022-11-16T17:35:11.907Z,12.05
2022-11-16T17:40:13.528Z,11.65
2022-11-16T17:45:14.943Z,11.10
2022-11-16T17:50:16.413Z,12.30
2022-11-16T17:55:17.837Z,15.20
2022-11-16T18:00:19.287Z,11.75
2022-11-16T18:05:21.250Z,11.65
2022-11-16T18:10:22.635Z,12.55
2022-11-16T18:15:29.587Z,9.07
2022-11-16T18:20:31.453Z,12.32
2022-11-16T18:25:34.453Z,10.02
2022-11-16T18:30:36.317Z,9.88
2022-11-16T18:35:37.736Z,14.52
2022-11-16T18:40:40.223Z,14.65
2022-11-16T18:45:41.620Z,9.68
2022-11-16T18:50:43.035Z,10.18
2022-11-16T18:55:52.405Z,9.88
2022-11-16T19:01:02.607Z,10.82
2022-11-16T19:06:08.848Z,13.38
2022-11-16T19:11:14.444Z,11.80
2022-11-16T19:16:15.844Z,12.57
2022-11-16T19:21:20.016Z,13.60
2022-11-16T19:26:25.787Z,13.48
2022-11-16T19:31:28.897Z,13.50
2022-11-16T19:36:30.944Z,13.57
2022-11-16T19:41:32.502Z,10.35
2022-11-16T19:46:34.124Z,13.43
2022-11-16T19:51:35.611Z,15.05
2022-11-16T19:56:37.058Z,16.02
2022-11-16T20:01:38.446Z,13.10
2022-11-16T20:06:40.930Z,12.10
2022-11-16T20:11:42.925Z,13.68
2022-11-16T20:16:46.199Z,12.18
2022-11-16T20:21:47.704Z,14.73
2022-11-16T20:26:49.396Z,14.27
2022-11-16T20:31:50.862Z,13.30
2022-11-16T20:36:52.343Z,13.90
2022-11-16T20:41:53.827Z,15.23
2022-11-16T20:46:55.342Z,12.82
2022-11-16T20:51:57.004Z,13.38
2022-11-16T20:56:58.465Z,11.70
2022-11-16T21:01:59.932Z,16.10
2022-11-16T21:07:01.420Z,16.98
2022-11-16T21:12:21.765Z,13.80
2022-11-16T21:17:23.206Z,14.70
2022-11-16T21:22:29.597Z,14.68
2022-11-16T21:27:33.465Z,15.83
2022-11-16T21:32:34.860Z,14.90
2022-11-16T21:37:36.260Z,16.52
2022-11-16T21:42:37.666Z,11.25
2022-11-16T21:47:39.080Z,15.52
2022-11-16T21:52:40.708Z,11.75
2022-11-16T21:57:42.108Z,16.65
2022-11-16T22:02:43.502Z,12.90
2022-11-16T22:07:44.923Z,13.48
2022-11-16T22:12:46.348Z,15.43
2022-11-16T22:17:49.128Z,15.40
2022-11-16T22:22:50.607Z,15.80
2022-11-16T22:28:18.944Z,14.27
2022-11-16T22:33:13.527Z,14.93
2022-11-16T22:38:14.982Z,12.52
2022-11-16T22:43:16.344Z,12.52
2022-11-16T22:48:18.070Z,15.90
2022-11-16T22:53:19.489Z,15.70
2022-11-16T22:58:20.890Z,10.82
2022-11-16T23:03:22.345Z,15.77
2022-11-16T23:08:24.900Z,13.77
2022-11-16T23:13:45.123Z,19.15
2022-11-16T23:24:25.907Z,13.75
2022-11-16T23:29:27.373Z,20.65
2022-11-16T23:34:28.777Z,15.43
2022-11-16T23:39:30.401Z,12.80
2022-11-16T23:44:31.869Z,14.07
2022-11-16T23:49:33.247Z,15.57
2022-11-16T23:54:34.634Z,12.20
2022-11-16T23:59:36.055Z,15.13
